sensor_id;sensor_type;location;lat;lon;timestamp;temperature;humidity
78289;DHT22;67539;48.752;12.922;2023-02-26T00:01:40;-0.10;99.90
78289;DHT22;67539;48.752;12.922;2023-02-26T00:04:09;-0.10;99.90
78289;DHT22;67539;48.752;12.922;2023-02-26T00:06:38;-0.10;99.90
78289;DHT22;67539;48.752;12.922;2023-02-26T00:09:22;-0.10;99.90
78289;DHT22;67539;48.752;12.922;2023-02-26T00:11:52;-0.10;99.90
78289;DHT22;67539;48.752;12.922;2023-02-26T00:14:21;-0.10;99.90
78289;DHT22;67539;48.752;12.922;2023-02-26T00:16:55;-0.10;99.90
78289;DHT22;67539;48.752;12.922;2023-02-26T00:19:26;-0.10;99.90
78289;DHT22;67539;48.752;12.922;2023-02-26T00:21:55;-0.10;99.90
78289;DHT22;67539;48.752;12.922;2023-02-26T00:24:23;-0.20;99.90
78289;DHT22;67539;48.752;12.922;2023-02-26T00:26:53;-0.20;99.90
78289;DHT22;67539;48.752;12.922;2023-02-26T00:29:21;-0.20;99.90
78289;DHT22;67539;48.752;12.922;2023-02-26T00:31:50;-0.20;99.90
78289;DHT22;67539;48.752;12.922;2023-02-26T00:34:19;-0.20;99.90
78289;DHT22;67539;48.752;12.922;2023-02-26T00:36:51;-0.30;99.90
78289;DHT22;67539;48.752;12.922;2023-02-26T00:39:35;-0.30;99.90
78289;DHT22;67539;48.752;12.922;2023-02-26T00:42:07;-0.30;99.90
78289;DHT22;67539;48.752;12.922;2023-02-26T00:44:35;-0.40;99.90
78289;DHT22;67539;48.752;12.922;2023-02-26T00:47:08;-0.30;99.90
78289;DHT22;67539;48.752;12.922;2023-02-26T00:49:46;-0.30;99.90
78289;DHT22;67539;48.752;12.922;2023-02-26T00:52:24;-0.40;99.90
78289;DHT22;67539;48.752;12.922;2023-02-26T00:54:54;-0.30;99.90
78289;DHT22;67539;48.752;12.922;2023-02-26T00:57:24;-0.40;99.90
78289;DHT22;67539;48.752;12.922;2023-02-26T00:59:52;-0.40;99.90
78289;DHT22;67539;48.752;12.922;2023-02-26T01:02:20;-0.40;99.90
78289;DHT22;67539;48.752;12.922;2023-02-26T01:04:49;-0.40;99.90
78289;DHT22;67539;48.752;12.922;2023-02-26T01:07:20;-0.40;99.90
78289;DHT22;67539;48.752;12.922;2023-02-26T01:09:50;-0.40;99.90
78289;DHT22;67539;48.752;12.922;2023-02-26T01:12:19;-0.30;99.90
78289;DHT22;67539;48.752;12.922;2023-02-26T01:14:49;-0.30;99.90
78289;DHT22;67539;48.752;12.922;2023-02-26T01:17:23;-0.30;99.90
78289;DHT22;67539;48.752;12.922;2023-02-26T01:19:55;-0.40;99.90
78289;DHT22;67539;48.752;12.922;2023-02-26T01:22:29;-0.40;99.90
78289;DHT22;67539;48.752;12.922;2023-02-26T01:25:03;-0.40;99.90
78289;DHT22;67539;48.752;12.922;2023-02-26T01:27:32;-0.40;99.90
78289;DHT22;67539;48.752;12.922;2023-02-26T01:30:03;-0.40;99.90
78289;DHT22;67539;48.752;12.922;2023-02-26T01:32:41;-0.30;99.90
78289;DHT22;67539;48.752;12.922;2023-02-26T01:35:20;-0.40;99.90
78289;DHT22;67539;48.752;12.922;2023-02-26T01:37:55;-0.40;99.90
78289;DHT22;67539;48.752;12.922;2023-02-26T01:43:34;-0.30;99.90
78289;DHT22;67539;48.752;12.922;2023-02-26T01:46:10;-0.30;99.90
78289;DHT22;67539;48.752;12.922;2023-02-26T01:48:48;-0.30;99.90
78289;DHT22;67539;48.752;12.922;2023-02-26T01:51:17;-0.40;99.90
78289;DHT22;67539;48.752;12.922;2023-02-26T01:53:46;-0.40;99.90
78289;DHT22;67539;48.752;12.922;2023-02-26T01:56:17;-0.40;99.90
78289;DHT22;67539;48.752;12.922;2023-02-26T01:58:48;-0.40;99.90
78289;DHT22;67539;48.752;12.922;2023-02-26T02:01:19;-0.40;99.90
78289;DHT22;67539;48.752;12.922;2023-02-26T02:03:47;-0.40;99.90
78289;DHT22;67539;48.752;12.922;2023-02-26T02:06:20;-0.40;99.70
78289;DHT22;67539;48.752;12.922;2023-02-26T02:08:50;-0.40;99.60
78289;DHT22;67539;48.752;12.922;2023-02-26T02:11:18;-0.40;99.70
78289;DHT22;67539;48.752;12.922;2023-02-26T02:13:58;-0.40;99.90
78289;DHT22;67539;48.752;12.922;2023-02-26T02:16:36;-0.40;99.00
78289;DHT22;67539;48.752;12.922;2023-02-26T02:19:36;-0.40;98.40
78289;DHT22;67539;48.752;12.922;2023-02-26T02:25:12;-0.40;99.50
78289;DHT22;67539;48.752;12.922;2023-02-26T02:27:48;-0.50;99.20
78289;DHT22;67539;48.752;12.922;2023-02-26T02:30:31;-0.40;99.20
78289;DHT22;67539;48.752;12.922;2023-02-26T02:33:07;-0.40;99.20
78289;DHT22;67539;48.752;12.922;2023-02-26T02:35:42;-0.40;99.30
78289;DHT22;67539;48.752;12.922;2023-02-26T02:38:16;-0.40;99.30
78289;DHT22;67539;48.752;12.922;2023-02-26T02:40:50;-0.50;99.30
78289;DHT22;67539;48.752;12.922;2023-02-26T02:43:28;-0.50;99.50
78289;DHT22;67539;48.752;12.922;2023-02-26T02:46:00;-0.50;99.80
78289;DHT22;67539;48.752;12.922;2023-02-26T02:48:35;-0.50;99.00
78289;DHT22;67539;48.752;12.922;2023-02-26T02:51:09;-0.50;99.30
78289;DHT22;67539;48.752;12.922;2023-02-26T02:53:42;-0.50;98.60
78289;DHT22;67539;48.752;12.922;2023-02-26T02:56:14;-0.50;98.40
78289;DHT22;67539;48.752;12.922;2023-02-26T02:58:48;-0.50;98.30
78289;DHT22;67539;48.752;12.922;2023-02-26T03:01:19;-0.50;98.80
78289;DHT22;67539;48.752;12.922;2023-02-26T03:03:56;-0.50;99.30
78289;DHT22;67539;48.752;12.922;2023-02-26T03:06:25;-0.50;99.30
78289;DHT22;67539;48.752;12.922;2023-02-26T03:08:53;-0.50;99.70
78289;DHT22;67539;48.752;12.922;2023-02-26T03:11:22;-0.50;99.10
78289;DHT22;67539;48.752;12.922;2023-02-26T03:13:52;-0.50;99.30
78289;DHT22;67539;48.752;12.922;2023-02-26T03:16:37;-0.50;99.20
78289;DHT22;67539;48.752;12.922;2023-02-26T03:19:17;-0.60;98.60
78289;DHT22;67539;48.752;12.922;2023-02-26T03:21:54;-0.60;98.70
78289;DHT22;67539;48.752;12.922;2023-02-26T03:24:48;-0.60;98.80
78289;DHT22;67539;48.752;12.922;2023-02-26T03:27:22;-0.60;98.70
78289;DHT22;67539;48.752;12.922;2023-02-26T03:29:56;-0.60;99.00
78289;DHT22;67539;48.752;12.922;2023-02-26T03:32:28;-0.60;99.40
78289;DHT22;67539;48.752;12.922;2023-02-26T03:35:03;-0.60;99.10
78289;DHT22;67539;48.752;12.922;2023-02-26T03:37:38;-0.70;99.80
78289;DHT22;67539;48.752;12.922;2023-02-26T03:40:12;-0.70;99.60
78289;DHT22;67539;48.752;12.922;2023-02-26T03:42:45;-0.80;99.90
78289;DHT22;67539;48.752;12.922;2023-02-26T03:45:18;-0.80;99.90
78289;DHT22;67539;48.752;12.922;2023-02-26T03:47:50;-0.80;99.90
78289;DHT22;67539;48.752;12.922;2023-02-26T03:50:26;-0.80;99.90
78289;DHT22;67539;48.752;12.922;2023-02-26T03:53:18;-0.90;99.90
78289;DHT22;67539;48.752;12.922;2023-02-26T03:55:56;-0.90;99.90
78289;DHT22;67539;48.752;12.922;2023-02-26T03:58:52;-0.90;99.90
78289;DHT22;67539;48.752;12.922;2023-02-26T04:01:43;-0.90;99.90
78289;DHT22;67539;48.752;12.922;2023-02-26T04:04:16;-0.90;99.90
78289;DHT22;67539;48.752;12.922;2023-02-26T04:06:47;-1.00;99.90
78289;DHT22;67539;48.752;12.922;2023-02-26T04:09:16;-1.00;99.90
78289;DHT22;67539;48.752;12.922;2023-02-26T04:11:44;-1.00;99.90
78289;DHT22;67539;48.752;12.922;2023-02-26T04:14:14;-1.00;99.90
78289;DHT22;67539;48.752;12.922;2023-02-26T04:16:43;-1.00;99.90
78289;DHT22;67539;48.752;12.922;2023-02-26T04:19:12;-1.00;99.90
78289;DHT22;67539;48.752;12.922;2023-02-26T04:21:41;-0.90;99.90
78289;DHT22;67539;48.752;12.922;2023-02-26T04:24:13;-0.90;99.90
78289;DHT22;67539;48.752;12.922;2023-02-26T04:26:42;-0.90;99.90
78289;DHT22;67539;48.752;12.922;2023-02-26T04:29:12;-0.90;99.90
78289;DHT22;67539;48.752;12.922;2023-02-26T04:31:40;-0.90;99.90
78289;DHT22;67539;48.752;12.922;2023-02-26T04:34:09;-0.90;99.90
78289;DHT22;67539;48.752;12.922;2023-02-26T04:36:38;-0.90;99.90
78289;DHT22;67539;48.752;12.922;2023-02-26T04:39:06;-0.90;99.90
78289;DHT22;67539;48.752;12.922;2023-02-26T04:41:38;-0.90;99.90
78289;DHT22;67539;48.752;12.922;2023-02-26T04:44:07;-0.90;99.90
78289;DHT22;67539;48.752;12.922;2023-02-26T04:46:39;-0.90;99.90
78289;DHT22;67539;48.752;12.922;2023-02-26T04:49:08;-0.80;99.90
78289;DHT22;67539;48.752;12.922;2023-02-26T04:51:40;-0.80;99.90
78289;DHT22;67539;48.752;12.922;2023-02-26T04:54:08;-0.80;99.90
78289;DHT22;67539;48.752;12.922;2023-02-26T04:56:38;-0.80;99.90
78289;DHT22;67539;48.752;12.922;2023-02-26T04:59:07;-0.80;99.90
78289;DHT22;67539;48.752;12.922;2023-02-26T05:01:35;-0.80;99.90
78289;DHT22;67539;48.752;12.922;2023-02-26T05:04:06;-0.80;99.90
78289;DHT22;67539;48.752;12.922;2023-02-26T05:06:35;-0.80;99.90
78289;DHT22;67539;48.752;12.922;2023-02-26T05:09:04;-0.80;99.90
78289;DHT22;67539;48.752;12.922;2023-02-26T05:11:32;-0.70;99.90
78289;DHT22;67539;48.752;12.922;2023-02-26T05:14:02;-0.70;99.90
78289;DHT22;67539;48.752;12.922;2023-02-26T05:16:32;-0.70;99.90
78289;DHT22;67539;48.752;12.922;2023-02-26T05:19:00;-0.70;99.90
78289;DHT22;67539;48.752;12.922;2023-02-26T05:21:29;-0.70;99.90
78289;DHT22;67539;48.752;12.922;2023-02-26T05:23:58;-0.70;99.90
78289;DHT22;67539;48.752;12.922;2023-02-26T05:26:26;-0.70;99.90
78289;DHT22;67539;48.752;12.922;2023-02-26T05:28:55;-0.70;99.90
78289;DHT22;67539;48.752;12.922;2023-02-26T05:31:25;-0.70;99.90
78289;DHT22;67539;48.752;12.922;2023-02-26T05:33:54;-0.70;99.90
78289;DHT22;67539;48.752;12.922;2023-02-26T05:36:22;-0.70;99.90
78289;DHT22;67539;48.752;12.922;2023-02-26T05:38:51;-0.80;99.90
78289;DHT22;67539;48.752;12.922;2023-02-26T05:41:20;-0.80;99.90
78289;DHT22;67539;48.752;12.922;2023-02-26T05:43:49;-0.80;99.90
78289;DHT22;67539;48.752;12.922;2023-02-26T05:46:17;-0.90;99.90
78289;DHT22;67539;48.752;12.922;2023-02-26T05:48:47;-0.90;99.90
78289;DHT22;67539;48.752;12.922;2023-02-26T05:51:15;-0.80;99.90
78289;DHT22;67539;48.752;12.922;2023-02-26T05:53:44;-0.90;99.90
78289;DHT22;67539;48.752;12.922;2023-02-26T05:56:13;-0.80;99.90
78289;DHT22;67539;48.752;12.922;2023-02-26T05:58:43;-0.90;99.90
78289;DHT22;67539;48.752;12.922;2023-02-26T06:01:12;-0.90;99.90
78289;DHT22;67539;48.752;12.922;2023-02-26T06:03:40;-0.90;99.90
78289;DHT22;67539;48.752;12.922;2023-02-26T06:06:12;-0.90;99.90
78289;DHT22;67539;48.752;12.922;2023-02-26T06:08:42;-0.90;99.90
78289;DHT22;67539;48.752;12.922;2023-02-26T06:11:11;-0.90;99.90
78289;DHT22;67539;48.752;12.922;2023-02-26T06:13:39;-0.90;99.90
78289;DHT22;67539;48.752;12.922;2023-02-26T06:16:08;-1.00;99.90
78289;DHT22;67539;48.752;12.922;2023-02-26T06:18:36;-1.00;99.90
78289;DHT22;67539;48.752;12.922;2023-02-26T06:21:04;-1.00;99.90
78289;DHT22;67539;48.752;12.922;2023-02-26T06:23:34;-1.00;99.90
78289;DHT22;67539;48.752;12.922;2023-02-26T06:26:03;-1.00;99.90
78289;DHT22;67539;48.752;12.922;2023-02-26T06:28:32;-1.00;99.90
78289;DHT22;67539;48.752;12.922;2023-02-26T06:31:00;-1.00;99.90
78289;DHT22;67539;48.752;12.922;2023-02-26T06:33:29;-1.00;99.90
78289;DHT22;67539;48.752;12.922;2023-02-26T06:35:57;-1.00;99.90
78289;DHT22;67539;48.752;12.922;2023-02-26T06:38:26;-0.90;99.90
78289;DHT22;67539;48.752;12.922;2023-02-26T06:40:56;-0.90;99.90
78289;DHT22;67539;48.752;12.922;2023-02-26T06:43:25;-0.90;99.70
78289;DHT22;67539;48.752;12.922;2023-02-26T06:45:56;-0.80;99.80
78289;DHT22;67539;48.752;12.922;2023-02-26T06:48:25;-0.80;99.90
78289;DHT22;67539;48.752;12.922;2023-02-26T06:50:54;-0.80;99.90
78289;DHT22;67539;48.752;12.922;2023-02-26T06:53:22;-0.80;99.90
78289;DHT22;67539;48.752;12.922;2023-02-26T06:55:51;-0.70;99.80
78289;DHT22;67539;48.752;12.922;2023-02-26T06:58:22;-0.60;99.70
78289;DHT22;67539;48.752;12.922;2023-02-26T07:00:51;-0.60;99.90
78289;DHT22;67539;48.752;12.922;2023-02-26T07:03:20;-0.50;99.90
78289;DHT22;67539;48.752;12.922;2023-02-26T07:05:49;-0.40;99.90
78289;DHT22;67539;48.752;12.922;2023-02-26T07:08:17;-0.40;99.20
78289;DHT22;67539;48.752;12.922;2023-02-26T07:10:46;-0.30;98.00
78289;DHT22;67539;48.752;12.922;2023-02-26T07:13:15;-0.20;98.40
78289;DHT22;67539;48.752;12.922;2023-02-26T07:15:45;-0.20;98.30
78289;DHT22;67539;48.752;12.922;2023-02-26T07:18:14;-0.20;98.10
78289;DHT22;67539;48.752;12.922;2023-02-26T07:20:42;-0.20;98.30
78289;DHT22;67539;48.752;12.922;2023-02-26T07:23:11;-0.20;97.20
78289;DHT22;67539;48.752;12.922;2023-02-26T07:25:39;-0.10;97.40
78289;DHT22;67539;48.752;12.922;2023-02-26T07:28:07;-0.10;97.60
78289;DHT22;67539;48.752;12.922;2023-02-26T07:30:35;-0.10;98.30
78289;DHT22;67539;48.752;12.922;2023-02-26T07:33:05;0.00;96.20
78289;DHT22;67539;48.752;12.922;2023-02-26T07:35:33;0.00;94.50
78289;DHT22;67539;48.752;12.922;2023-02-26T07:38:02;0.00;94.50
78289;DHT22;67539;48.752;12.922;2023-02-26T07:40:30;0.00;93.70
78289;DHT22;67539;48.752;12.922;2023-02-26T07:42:59;0.00;93.30
78289;DHT22;67539;48.752;12.922;2023-02-26T07:45:27;0.00;94.90
78289;DHT22;67539;48.752;12.922;2023-02-26T07:47:55;0.00;94.30
78289;DHT22;67539;48.752;12.922;2023-02-26T07:50:26;0.00;93.30
78289;DHT22;67539;48.752;12.922;2023-02-26T07:52:54;0.00;93.70
78289;DHT22;67539;48.752;12.922;2023-02-26T07:55:23;0.00;92.10
78289;DHT22;67539;48.752;12.922;2023-02-26T07:57:51;0.10;93.20
78289;DHT22;67539;48.752;12.922;2023-02-26T08:00:20;0.10;92.50
78289;DHT22;67539;48.752;12.922;2023-02-26T08:02:49;0.10;92.80
78289;DHT22;67539;48.752;12.922;2023-02-26T08:05:18;0.20;93.00
78289;DHT22;67539;48.752;12.922;2023-02-26T08:07:47;0.20;93.10
78289;DHT22;67539;48.752;12.922;2023-02-26T08:10:16;0.20;92.60
78289;DHT22;67539;48.752;12.922;2023-02-26T08:12:44;0.30;93.30
78289;DHT22;67539;48.752;12.922;2023-02-26T08:15:12;0.30;93.30
78289;DHT22;67539;48.752;12.922;2023-02-26T08:17:41;0.40;93.50
78289;DHT22;67539;48.752;12.922;2023-02-26T08:20:10;0.40;92.60
78289;DHT22;67539;48.752;12.922;2023-02-26T08:22:40;0.50;92.50
78289;DHT22;67539;48.752;12.922;2023-02-26T08:25:10;0.50;92.10
78289;DHT22;67539;48.752;12.922;2023-02-26T08:27:39;0.50;92.10
78289;DHT22;67539;48.752;12.922;2023-02-26T08:30:09;0.60;91.90
78289;DHT22;67539;48.752;12.922;2023-02-26T08:32:38;0.60;91.50
78289;DHT22;67539;48.752;12.922;2023-02-26T08:35:09;0.60;92.50
78289;DHT22;67539;48.752;12.922;2023-02-26T08:37:37;0.70;92.10
78289;DHT22;67539;48.752;12.922;2023-02-26T08:40:07;0.70;90.80
78289;DHT22;67539;48.752;12.922;2023-02-26T08:42:37;0.80;91.60
78289;DHT22;67539;48.752;12.922;2023-02-26T08:45:07;0.90;90.70
78289;DHT22;67539;48.752;12.922;2023-02-26T08:47:36;1.00;90.00
78289;DHT22;67539;48.752;12.922;2023-02-26T08:50:22;1.10;91.30
78289;DHT22;67539;48.752;12.922;2023-02-26T08:52:50;1.20;90.70
78289;DHT22;67539;48.752;12.922;2023-02-26T08:55:19;1.30;90.20
78289;DHT22;67539;48.752;12.922;2023-02-26T08:57:48;1.40;88.70
78289;DHT22;67539;48.752;12.922;2023-02-26T09:00:17;1.30;89.30
78289;DHT22;67539;48.752;12.922;2023-02-26T09:02:45;1.40;91.00
78289;DHT22;67539;48.752;12.922;2023-02-26T09:05:14;1.40;89.70
78289;DHT22;67539;48.752;12.922;2023-02-26T09:07:42;1.50;89.30
78289;DHT22;67539;48.752;12.922;2023-02-26T09:10:12;1.50;90.10
78289;DHT22;67539;48.752;12.922;2023-02-26T09:12:40;1.60;84.90
78289;DHT22;67539;48.752;12.922;2023-02-26T09:15:11;1.60;83.70
78289;DHT22;67539;48.752;12.922;2023-02-26T09:17:40;1.70;82.00
78289;DHT22;67539;48.752;12.922;2023-02-26T09:20:10;1.80;77.10
78289;DHT22;67539;48.752;12.922;2023-02-26T09:22:40;1.80;76.40
78289;DHT22;67539;48.752;12.922;2023-02-26T09:25:09;1.90;79.80
78289;DHT22;67539;48.752;12.922;2023-02-26T09:27:37;2.00;77.90
78289;DHT22;67539;48.752;12.922;2023-02-26T09:30:06;2.00;78.10
78289;DHT22;67539;48.752;12.922;2023-02-26T09:32:36;2.10;75.30
78289;DHT22;67539;48.752;12.922;2023-02-26T09:35:06;2.20;73.70
78289;DHT22;67539;48.752;12.922;2023-02-26T09:37:35;2.20;74.80
78289;DHT22;67539;48.752;12.922;2023-02-26T09:40:04;2.10;70.60
78289;DHT22;67539;48.752;12.922;2023-02-26T09:42:44;2.00;69.70
78289;DHT22;67539;48.752;12.922;2023-02-26T09:45:22;2.00;71.30
78289;DHT22;67539;48.752;12.922;2023-02-26T09:47:53;2.00;70.50
78289;DHT22;67539;48.752;12.922;2023-02-26T09:50:25;2.00;71.90
78289;DHT22;67539;48.752;12.922;2023-02-26T09:52:58;2.10;77.30
78289;DHT22;67539;48.752;12.922;2023-02-26T09:55:33;2.20;75.50
78289;DHT22;67539;48.752;12.922;2023-02-26T09:58:03;2.30;73.70
78289;DHT22;67539;48.752;12.922;2023-02-26T10:00:35;2.30;72.70
78289;DHT22;67539;48.752;12.922;2023-02-26T10:03:16;2.40;75.40
78289;DHT22;67539;48.752;12.922;2023-02-26T10:06:00;2.40;73.60
78289;DHT22;67539;48.752;12.922;2023-02-26T10:08:40;2.60;73.40
78289;DHT22;67539;48.752;12.922;2023-02-26T10:11:15;2.70;74.20
78289;DHT22;67539;48.752;12.922;2023-02-26T10:13:49;2.80;73.80
78289;DHT22;67539;48.752;12.922;2023-02-26T10:16:26;2.90;74.80
78289;DHT22;67539;48.752;12.922;2023-02-26T10:19:02;3.00;76.20
78289;DHT22;67539;48.752;12.922;2023-02-26T10:21:34;3.10;75.30
78289;DHT22;67539;48.752;12.922;2023-02-26T10:24:09;3.20;72.50
78289;DHT22;67539;48.752;12.922;2023-02-26T10:26:40;3.30;74.10
78289;DHT22;67539;48.752;12.922;2023-02-26T10:29:16;3.50;72.10
78289;DHT22;67539;48.752;12.922;2023-02-26T10:32:01;3.50;71.20
78289;DHT22;67539;48.752;12.922;2023-02-26T10:34:36;3.60;72.00
78289;DHT22;67539;48.752;12.922;2023-02-26T10:37:15;3.60;72.80
78289;DHT22;67539;48.752;12.922;2023-02-26T10:39:48;3.60;72.50
78289;DHT22;67539;48.752;12.922;2023-02-26T10:42:20;3.70;71.90
78289;DHT22;67539;48.752;12.922;2023-02-26T10:44:59;3.80;68.80
78289;DHT22;67539;48.752;12.922;2023-02-26T10:47:36;3.70;68.10
78289;DHT22;67539;48.752;12.922;2023-02-26T10:50:09;3.70;68.70
78289;DHT22;67539;48.752;12.922;2023-02-26T10:52:42;3.70;69.40
78289;DHT22;67539;48.752;12.922;2023-02-26T10:55:28;3.70;70.10
78289;DHT22;67539;48.752;12.922;2023-02-26T10:58:02;3.70;68.00
78289;DHT22;67539;48.752;12.922;2023-02-26T11:00:32;3.60;68.50
78289;DHT22;67539;48.752;12.922;2023-02-26T11:03:03;3.60;67.10
78289;DHT22;67539;48.752;12.922;2023-02-26T11:05:33;3.60;65.40
78289;DHT22;67539;48.752;12.922;2023-02-26T11:08:03;3.60;65.50
78289;DHT22;67539;48.752;12.922;2023-02-26T11:10:39;3.60;65.90
78289;DHT22;67539;48.752;12.922;2023-02-26T11:13:08;3.70;66.90
78289;DHT22;67539;48.752;12.922;2023-02-26T11:15:37;3.80;65.00
78289;DHT22;67539;48.752;12.922;2023-02-26T11:18:12;3.80;64.90
78289;DHT22;67539;48.752;12.922;2023-02-26T11:20:45;3.80;65.80
78289;DHT22;67539;48.752;12.922;2023-02-26T11:23:19;3.80;65.70
78289;DHT22;67539;48.752;12.922;2023-02-26T11:25:53;3.90;63.30
78289;DHT22;67539;48.752;12.922;2023-02-26T11:28:28;3.70;61.50
78289;DHT22;67539;48.752;12.922;2023-02-26T11:31:00;3.70;62.90
78289;DHT22;67539;48.752;12.922;2023-02-26T11:33:35;3.60;64.90
78289;DHT22;67539;48.752;12.922;2023-02-26T11:36:09;3.70;66.50
78289;DHT22;67539;48.752;12.922;2023-02-26T11:38:38;3.80;64.50
78289;DHT22;67539;48.752;12.922;2023-02-26T11:41:07;3.90;62.70
78289;DHT22;67539;48.752;12.922;2023-02-26T11:43:38;3.90;63.30
78289;DHT22;67539;48.752;12.922;2023-02-26T11:46:11;3.90;62.60
78289;DHT22;67539;48.752;12.922;2023-02-26T11:48:43;3.90;60.10
78289;DHT22;67539;48.752;12.922;2023-02-26T11:51:18;3.80;60.20
78289;DHT22;67539;48.752;12.922;2023-02-26T11:53:49;3.80;59.60
78289;DHT22;67539;48.752;12.922;2023-02-26T11:56:28;3.80;61.80
78289;DHT22;67539;48.752;12.922;2023-02-26T11:58:59;3.90;63.20
78289;DHT22;67539;48.752;12.922;2023-02-26T12:01:28;3.90;62.20
78289;DHT22;67539;48.752;12.922;2023-02-26T12:03:58;3.90;60.90
78289;DHT22;67539;48.752;12.922;2023-02-26T12:06:30;4.00;61.70
78289;DHT22;67539;48.752;12.922;2023-02-26T12:08:58;4.00;63.50
78289;DHT22;67539;48.752;12.922;2023-02-26T12:11:54;4.10;62.90
78289;DHT22;67539;48.752;12.922;2023-02-26T12:14:36;4.20;62.90
78289;DHT22;67539;48.752;12.922;2023-02-26T12:17:19;4.30;64.30
78289;DHT22;67539;48.752;12.922;2023-02-26T12:19:53;4.50;61.60
78289;DHT22;67539;48.752;12.922;2023-02-26T12:22:46;4.50;62.60
78289;DHT22;67539;48.752;12.922;2023-02-26T12:28:38;4.50;60.80
78289;DHT22;67539;48.752;12.922;2023-02-26T12:37:29;3.90;59.80
78289;DHT22;67539;48.752;12.922;2023-02-26T12:40:10;3.90;59.80
78289;DHT22;67539;48.752;12.922;2023-02-26T12:42:49;3.90;60.40
78289;DHT22;67539;48.752;12.922;2023-02-26T12:45:35;4.00;60.70
78289;DHT22;67539;48.752;12.922;2023-02-26T12:48:28;4.00;61.00
78289;DHT22;67539;48.752;12.922;2023-02-26T12:51:03;4.20;61.70
78289;DHT22;67539;48.752;12.922;2023-02-26T12:53:50;4.40;60.40
78289;DHT22;67539;48.752;12.922;2023-02-26T12:56:44;4.40;59.80
78289;DHT22;67539;48.752;12.922;2023-02-26T12:59:47;4.50;60.30
78289;DHT22;67539;48.752;12.922;2023-02-26T13:02:44;4.70;60.70
78289;DHT22;67539;48.752;12.922;2023-02-26T13:05:25;4.80;60.00
78289;DHT22;67539;48.752;12.922;2023-02-26T13:08:14;5.10;60.70
78289;DHT22;67539;48.752;12.922;2023-02-26T13:10:56;5.20;58.40
78289;DHT22;67539;48.752;12.922;2023-02-26T13:13:52;5.30;58.10
78289;DHT22;67539;48.752;12.922;2023-02-26T13:16:30;5.40;56.10
78289;DHT22;67539;48.752;12.922;2023-02-26T13:19:06;5.30;58.50
78289;DHT22;67539;48.752;12.922;2023-02-26T13:21:38;5.20;57.20
78289;DHT22;67539;48.752;12.922;2023-02-26T13:24:12;5.00;56.40
78289;DHT22;67539;48.752;12.922;2023-02-26T13:26:42;4.90;58.60
78289;DHT22;67539;48.752;12.922;2023-02-26T13:29:15;4.80;57.10
78289;DHT22;67539;48.752;12.922;2023-02-26T13:31:47;4.60;57.70
78289;DHT22;67539;48.752;12.922;2023-02-26T13:34:22;4.40;59.00
78289;DHT22;67539;48.752;12.922;2023-02-26T13:36:52;4.40;58.90
78289;DHT22;67539;48.752;12.922;2023-02-26T13:39:35;4.50;59.60
78289;DHT22;67539;48.752;12.922;2023-02-26T13:42:17;4.50;59.80
78289;DHT22;67539;48.752;12.922;2023-02-26T13:44:53;4.70;61.20
78289;DHT22;67539;48.752;12.922;2023-02-26T13:47:39;4.80;57.10
78289;DHT22;67539;48.752;12.922;2023-02-26T13:50:32;4.80;56.20
78289;DHT22;67539;48.752;12.922;2023-02-26T13:56:05;4.60;57.10
78289;DHT22;67539;48.752;12.922;2023-02-26T13:58:37;4.70;58.00
78289;DHT22;67539;48.752;12.922;2023-02-26T14:01:09;5.00;57.40
78289;DHT22;67539;48.752;12.922;2023-02-26T14:03:43;5.20;57.40
78289;DHT22;67539;48.752;12.922;2023-02-26T14:06:40;5.50;57.70
78289;DHT22;67539;48.752;12.922;2023-02-26T14:09:35;5.80;57.10
78289;DHT22;67539;48.752;12.922;2023-02-26T14:12:32;6.10;56.00
78289;DHT22;67539;48.752;12.922;2023-02-26T14:18:27;6.70;54.50
78289;DHT22;67539;48.752;12.922;2023-02-26T14:21:37;6.90;55.00
78289;DHT22;67539;48.752;12.922;2023-02-26T14:24:13;7.10;54.40
78289;DHT22;67539;48.752;12.922;2023-02-26T14:26:45;7.50;54.20
78289;DHT22;67539;48.752;12.922;2023-02-26T14:29:19;7.70;53.90
78289;DHT22;67539;48.752;12.922;2023-02-26T14:32:13;7.90;51.20
78289;DHT22;67539;48.752;12.922;2023-02-26T14:34:49;8.00;52.60
78289;DHT22;67539;48.752;12.922;2023-02-26T14:37:21;7.80;52.80
78289;DHT22;67539;48.752;12.922;2023-02-26T14:39:54;7.40;50.30
78289;DHT22;67539;48.752;12.922;2023-02-26T14:42:30;7.00;52.00
78289;DHT22;67539;48.752;12.922;2023-02-26T14:45:08;6.90;52.50
78289;DHT22;67539;48.752;12.922;2023-02-26T14:47:37;6.70;52.20
78289;DHT22;67539;48.752;12.922;2023-02-26T14:50:11;6.50;52.10
78289;DHT22;67539;48.752;12.922;2023-02-26T14:52:54;6.10;53.90
78289;DHT22;67539;48.752;12.922;2023-02-26T14:55:38;5.60;57.20
78289;DHT22;67539;48.752;12.922;2023-02-26T14:58:29;5.10;58.10
78289;DHT22;67539;48.752;12.922;2023-02-26T15:01:10;4.40;62.30
78289;DHT22;67539;48.752;12.922;2023-02-26T15:04:10;4.00;65.90
78289;DHT22;67539;48.752;12.922;2023-02-26T15:06:53;3.70;66.00
78289;DHT22;67539;48.752;12.922;2023-02-26T15:09:31;3.70;66.50
78289;DHT22;67539;48.752;12.922;2023-02-26T15:12:18;3.80;66.40
78289;DHT22;67539;48.752;12.922;2023-02-26T15:15:07;3.80;63.90
78289;DHT22;67539;48.752;12.922;2023-02-26T15:17:50;3.80;62.70
78289;DHT22;67539;48.752;12.922;2023-02-26T15:20:29;3.80;61.30
78289;DHT22;67539;48.752;12.922;2023-02-26T15:25:53;3.80;62.40
78289;DHT22;67539;48.752;12.922;2023-02-26T15:28:25;3.60;64.00
78289;DHT22;67539;48.752;12.922;2023-02-26T15:30:54;3.40;66.70
78289;DHT22;67539;48.752;12.922;2023-02-26T15:33:25;3.30;68.30
78289;DHT22;67539;48.752;12.922;2023-02-26T15:35:54;3.20;69.80
78289;DHT22;67539;48.752;12.922;2023-02-26T15:38:24;3.20;70.90
78289;DHT22;67539;48.752;12.922;2023-02-26T15:40:56;3.10;71.60
78289;DHT22;67539;48.752;12.922;2023-02-26T15:43:27;3.10;73.20
78289;DHT22;67539;48.752;12.922;2023-02-26T15:45:56;3.10;73.70
78289;DHT22;67539;48.752;12.922;2023-02-26T15:48:29;3.10;73.00
78289;DHT22;67539;48.752;12.922;2023-02-26T15:51:00;3.10;73.00
78289;DHT22;67539;48.752;12.922;2023-02-26T15:53:33;3.10;72.90
78289;DHT22;67539;48.752;12.922;2023-02-26T15:56:04;3.20;72.50
78289;DHT22;67539;48.752;12.922;2023-02-26T15:58:41;3.20;72.00
78289;DHT22;67539;48.752;12.922;2023-02-26T16:01:15;3.00;70.80
78289;DHT22;67539;48.752;12.922;2023-02-26T16:03:44;3.00;70.90
78289;DHT22;67539;48.752;12.922;2023-02-26T16:06:17;2.90;70.30
78289;DHT22;67539;48.752;12.922;2023-02-26T16:08:46;2.80;69.90
78289;DHT22;67539;48.752;12.922;2023-02-26T16:11:15;2.70;70.80
78289;DHT22;67539;48.752;12.922;2023-02-26T16:13:45;2.60;70.80
78289;DHT22;67539;48.752;12.922;2023-02-26T16:16:21;2.50;69.60
78289;DHT22;67539;48.752;12.922;2023-02-26T16:18:52;2.50;68.50
78289;DHT22;67539;48.752;12.922;2023-02-26T16:21:26;2.40;69.60
78289;DHT22;67539;48.752;12.922;2023-02-26T16:23:58;2.30;69.70
78289;DHT22;67539;48.752;12.922;2023-02-26T16:26:31;2.20;68.80
78289;DHT22;67539;48.752;12.922;2023-02-26T16:29:03;2.10;68.30